createdAt,value
2017-08-25T00:01:03.959Z,79.88
2017-08-25T00:03:31.408Z,81.09
2017-08-25T00:05:58.921Z,82.23
2017-08-25T00:08:26.392Z,81.33
2017-08-25T00:10:53.853Z,81.54
2017-08-25T00:13:23.156Z,80.45
2017-08-25T00:15:50.624Z,79.29
2017-08-25T00:18:18.096Z,79.79
2017-08-25T00:20:45.644Z,80.72
2017-08-25T00:23:13.125Z,79.79
2017-08-25T00:25:40.657Z,79.28
2017-08-25T00:28:08.142Z,80.61
2017-08-25T00:30:35.700Z,80.75
2017-08-25T00:33:03.192Z,81.19
2017-08-25T00:35:30.640Z,82.92
2017-08-25T00:37:58.097Z,81.32
2017-08-25T00:40:25.577Z,79.87
2017-08-25T00:42:53.037Z,80.47
2017-08-25T00:45:20.524Z,80.24
2017-08-25T00:47:47.981Z,80.16
2017-08-25T00:50:15.462Z,79.58
2017-08-25T00:52:42.925Z,80.33
2017-08-25T00:55:10.408Z,80.45
2017-08-25T00:57:37.876Z,81.90
2017-08-25T01:00:05.360Z,82.11
2017-08-25T01:02:32.836Z,81.73
2017-08-25T01:05:00.293Z,80.93
2017-08-25T01:07:27.824Z,80.53
2017-08-25T01:09:55.271Z,81.26
2017-08-25T01:12:22.757Z,81.58
2017-08-25T01:14:50.336Z,81.53
2017-08-25T01:17:17.821Z,81.90
2017-08-25T01:19:45.289Z,81.93
2017-08-25T01:22:12.770Z,81.59
2017-08-25T01:24:40.249Z,81.06
2017-08-25T01:27:07.996Z,81.03
2017-08-25T01:29:35.471Z,81.48
2017-08-25T01:32:03.009Z,82.23
2017-08-25T01:34:30.464Z,81.80
2017-08-25T01:36:58.009Z,82.06
2017-08-25T01:39:25.777Z,81.58
2017-08-25T01:41:53.241Z,81.56
2017-08-25T01:44:20.724Z,81.28
2017-08-25T01:46:48.248Z,80.79
2017-08-25T01:49:15.809Z,80.53
2017-08-25T01:51:43.264Z,81.33
2017-08-25T01:54:10.743Z,81.40
2017-08-25T01:56:38.188Z,81.54
2017-08-25T01:59:05.737Z,82.51
2017-08-25T02:01:33.296Z,82.20
2017-08-25T02:04:01.065Z,81.28
2017-08-25T02:06:28.625Z,81.26
2017-08-25T02:08:56.085Z,81.42
2017-08-25T02:11:23.658Z,82.19
2017-08-25T02:13:51.120Z,81.75
2017-08-25T02:16:18.604Z,81.69
2017-08-25T02:18:46.060Z,82.07
2017-08-25T02:21:13.531Z,81.39
2017-08-25T02:23:41.009Z,80.39
2017-08-25T02:26:08.570Z,81.52
2017-08-25T02:28:36.141Z,80.36
2017-08-25T02:31:03.597Z,80.56
2017-08-25T02:33:31.080Z,80.09
2017-08-25T02:35:58.604Z,80.67
2017-08-25T02:38:26.101Z,80.94
2017-08-25T02:40:53.566Z,80.76
2017-08-25T02:43:21.100Z,81.21
2017-08-25T02:45:48.636Z,80.93
2017-08-25T02:48:16.191Z,79.59
2017-08-25T02:50:43.765Z,79.69
2017-08-25T02:53:11.311Z,79.61
2017-08-25T02:55:38.824Z,79.33
2017-08-25T02:58:06.296Z,78.81
2017-08-25T03:00:33.749Z,78.97
2017-08-25T03:03:01.249Z,79.25
2017-08-25T03:05:28.713Z,78.99
2017-08-25T03:07:56.173Z,79.02
2017-08-25T03:10:23.669Z,78.28
2017-08-25T03:12:51.129Z,78.30
2017-08-25T03:15:18.632Z,79.21
2017-08-25T03:17:46.181Z,79.61
2017-08-25T03:20:13.661Z,80.32
2017-08-25T03:22:41.196Z,81.43
2017-08-25T03:25:08.693Z,81.55
2017-08-25T03:27:36.150Z,80.83
2017-08-25T03:30:03.633Z,79.62
2017-08-25T03:32:31.278Z,80.06
2017-08-25T03:34:58.798Z,81.19
2017-08-25T03:37:26.257Z,80.98
2017-08-25T03:39:53.801Z,80.64
2017-08-25T03:42:21.373Z,80.24
2017-08-25T03:44:48.928Z,78.34
2017-08-25T03:47:16.504Z,77.10
2017-08-25T03:49:43.959Z,76.58
2017-08-25T03:52:11.453Z,77.34
2017-08-25T03:54:38.953Z,77.76
2017-08-25T03:57:06.445Z,78.17
2017-08-25T03:59:33.968Z,78.41
2017-08-25T04:02:01.461Z,78.49
2017-08-25T04:04:28.926Z,77.54
2017-08-25T04:06:56.401Z,78.94
2017-08-25T04:09:23.893Z,79.41
2017-08-25T04:11:51.349Z,79.95
2017-08-25T04:14:18.820Z,79.54
2017-08-25T04:16:46.286Z,80.41
2017-08-25T04:19:13.819Z,81.23
2017-08-25T04:21:41.400Z,80.99
2017-08-25T04:24:08.897Z,79.98
2017-08-25T04:26:36.397Z,79.78
2017-08-25T04:29:03.860Z,81.14
2017-08-25T04:31:31.414Z,81.30
2017-08-25T04:33:58.876Z,81.30
2017-08-25T04:36:26.357Z,81.62
2017-08-25T04:38:53.818Z,81.19
2017-08-25T04:41:21.297Z,81.53
2017-08-25T04:43:48.756Z,81.47
2017-08-25T04:46:16.249Z,81.61
2017-08-25T04:48:43.717Z,81.33
2017-08-25T04:51:11.208Z,82.10
2017-08-25T04:53:38.660Z,83.17
2017-08-25T04:56:06.122Z,82.97
2017-08-25T04:58:34.690Z,83.42
2017-08-25T05:01:02.329Z,83.95
2017-08-25T05:03:29.806Z,84.09
2017-08-25T05:05:57.269Z,83.86
2017-08-25T05:08:24.749Z,83.19
2017-08-25T05:10:52.253Z,82.94
2017-08-25T05:13:19.735Z,83.08
2017-08-25T05:15:47.268Z,82.98
2017-08-25T05:18:14.733Z,83.18
2017-08-25T05:20:42.260Z,82.84
2017-08-25T05:23:09.725Z,82.75
2017-08-25T05:25:37.297Z,80.68
2017-08-25T05:28:04.952Z,79.08
2017-08-25T05:30:32.517Z,80.77
2017-08-25T05:33:02.716Z,79.92
2017-08-25T05:35:30.345Z,79.99
2017-08-25T05:37:57.809Z,79.49
2017-08-25T05:40:25.555Z,78.86
2017-08-25T05:42:53.049Z,78.41
2017-08-25T05:45:20.528Z,78.21
2017-08-25T05:47:47.989Z,77.32
2017-08-25T05:50:15.447Z,77.91
2017-08-25T05:52:42.979Z,78.34
2017-08-25T05:55:10.461Z,78.18
2017-08-25T05:57:37.968Z,77.82
2017-08-25T06:00:05.429Z,77.75
2017-08-25T06:02:32.954Z,75.04
2017-08-25T06:05:00.433Z,76.98
2017-08-25T06:07:27.915Z,76.62
2017-08-25T06:09:55.405Z,75.79
2017-08-25T06:12:22.890Z,76.12
2017-08-25T06:14:50.425Z,76.61
2017-08-25T06:17:17.887Z,76.62
2017-08-25T06:19:45.367Z,76.06
2017-08-25T06:22:12.830Z,75.27
2017-08-25T06:24:40.366Z,75.43
2017-08-25T06:27:07.830Z,74.19
2017-08-25T06:29:35.317Z,73.50
2017-08-25T06:32:02.821Z,73.37
2017-08-25T06:34:30.387Z,73.39
2017-08-25T06:36:57.946Z,70.34
2017-08-25T06:39:25.440Z,70.75
2017-08-25T06:41:52.901Z,71.21
2017-08-25T06:44:20.424Z,71.16
2017-08-25T06:46:47.942Z,71.22
2017-08-25T06:49:15.392Z,71.84
2017-08-25T06:51:42.874Z,72.04
2017-08-25T06:54:10.345Z,71.41
2017-08-25T06:56:37.825Z,71.62
2017-08-25T06:59:05.280Z,72.34
2017-08-25T07:01:32.806Z,72.60
2017-08-25T07:04:00.373Z,71.93
2017-08-25T07:06:27.852Z,71.65
2017-08-25T07:08:56.075Z,71.47
2017-08-25T07:11:23.657Z,71.07
2017-08-25T07:13:51.108Z,69.79
2017-08-25T07:16:18.681Z,69.75
2017-08-25T07:18:46.137Z,69.83
2017-08-25T07:21:13.594Z,69.00
2017-08-25T07:23:41.077Z,68.27
2017-08-25T07:26:08.596Z,70.38
2017-08-25T07:28:36.084Z,69.50
2017-08-25T07:31:03.617Z,68.96
2017-08-25T07:33:31.102Z,68.11
2017-08-25T07:35:58.575Z,66.43
2017-08-25T07:38:26.083Z,65.61
2017-08-25T07:40:53.645Z,66.38
2017-08-25T07:43:21.113Z,66.71
2017-08-25T07:45:48.604Z,66.08
2017-08-25T07:48:16.065Z,67.12
2017-08-25T07:50:43.550Z,67.26
2017-08-25T07:53:11.047Z,67.22
2017-08-25T07:55:38.584Z,66.66
2017-08-25T07:58:06.056Z,66.11
2017-08-25T08:00:33.602Z,65.34
2017-08-25T08:03:01.158Z,64.28
2017-08-25T08:05:28.646Z,64.30
2017-08-25T08:07:56.103Z,64.55
2017-08-25T08:10:23.562Z,65.08
2017-08-25T08:12:51.060Z,65.31
2017-08-25T08:15:18.524Z,64.50
2017-08-25T08:17:46.025Z,62.24
2017-08-25T08:20:13.488Z,62.62
2017-08-25T08:22:41.026Z,63.20
2017-08-25T08:25:08.573Z,61.97
2017-08-25T08:27:36.064Z,60.66
2017-08-25T08:30:03.526Z,60.28
2017-08-25T08:32:31.058Z,60.48
2017-08-25T08:34:58.551Z,60.75
2017-08-25T08:37:26.033Z,60.46
2017-08-25T08:39:53.521Z,59.54
2017-08-25T08:42:21.052Z,58.55
2017-08-25T08:44:48.542Z,60.20
2017-08-25T08:47:16.095Z,60.24
2017-08-25T08:49:43.656Z,60.72
2017-08-25T08:52:11.213Z,60.45
2017-08-25T08:54:38.681Z,60.25
2017-08-25T08:57:06.223Z,60.59
2017-08-25T08:59:33.745Z,59.96
2017-08-25T09:02:01.249Z,58.99
2017-08-25T09:04:28.737Z,58.81
2017-08-25T09:06:56.260Z,57.56
2017-08-25T09:09:23.730Z,57.62
2017-08-25T09:11:51.256Z,56.69
2017-08-25T09:14:18.744Z,56.01
2017-08-25T09:16:46.241Z,56.44
2017-08-25T09:19:13.769Z,55.57
2017-08-25T09:21:41.322Z,56.19
2017-08-25T09:24:08.862Z,56.77
2017-08-25T09:26:36.325Z,56.38
2017-08-25T09:29:03.893Z,56.90
2017-08-25T09:31:31.643Z,54.90
2017-08-25T09:33:59.208Z,54.71
2017-08-25T09:36:26.765Z,55.12
2017-08-25T09:38:54.242Z,54.63
2017-08-25T09:41:21.705Z,54.98
2017-08-25T09:43:49.684Z,54.85
2017-08-25T09:46:17.193Z,54.56
2017-08-25T09:48:44.681Z,53.37
2017-08-25T09:51:12.141Z,51.83
2017-08-25T09:53:39.617Z,52.46
2017-08-25T09:56:07.082Z,51.49
2017-08-25T09:58:34.561Z,51.78
2017-08-25T10:01:02.012Z,52.17
2017-08-25T10:03:29.496Z,51.72
2017-08-25T10:05:57.068Z,51.58
2017-08-25T10:08:24.631Z,50.35
2017-08-25T10:10:52.317Z,51.20
2017-08-25T10:13:19.834Z,51.14
2017-08-25T10:15:47.293Z,51.48
2017-08-25T10:18:14.856Z,51.82
2017-08-25T10:20:42.333Z,50.76
2017-08-25T10:23:09.869Z,51.60
2017-08-25T10:25:37.352Z,50.98
2017-08-25T10:28:04.804Z,50.29
2017-08-25T10:30:32.338Z,50.18
2017-08-25T10:33:11.967Z,50.48
2017-08-25T10:38:43.677Z,49.41
2017-08-25T10:41:22.965Z,49.48
2017-08-25T10:44:02.314Z,49.99
2017-08-25T10:46:29.787Z,49.83
2017-08-25T10:48:57.241Z,49.40
2017-08-25T10:51:24.722Z,49.77
2017-08-25T10:53:52.233Z,48.58
2017-08-25T10:56:19.713Z,48.74
2017-08-25T10:58:47.263Z,50.57
2017-08-25T11:01:14.782Z,50.10
2017-08-25T11:03:42.253Z,49.29
2017-08-25T11:06:09.817Z,50.07
2017-08-25T11:08:37.369Z,50.48
2017-08-25T11:11:04.836Z,50.40
2017-08-25T11:13:32.427Z,49.49
2017-08-25T11:15:59.902Z,49.35
2017-08-25T11:18:27.390Z,49.60
2017-08-25T11:20:54.848Z,50.65
2017-08-25T11:23:22.325Z,50.28
2017-08-25T11:25:49.810Z,50.79
2017-08-25T11:28:17.300Z,50.12
2017-08-25T11:30:45.800Z,50.24
2017-08-25T11:33:13.277Z,50.41
2017-08-25T11:35:40.760Z,49.76
2017-08-25T11:38:08.217Z,50.31
2017-08-25T11:40:35.697Z,50.41
2017-08-25T11:43:08.290Z,48.56
2017-08-25T11:45:35.924Z,47.96
2017-08-25T11:48:03.409Z,48.44
2017-08-25T11:50:30.888Z,48.02
2017-08-25T11:52:58.350Z,47.09
2017-08-25T11:55:25.842Z,47.82
2017-08-25T11:57:53.875Z,47.69
2017-08-25T12:00:21.359Z,49.87
2017-08-25T12:02:48.836Z,49.65
2017-08-25T12:05:16.376Z,49.36
2017-08-25T12:07:43.862Z,49.30
2017-08-25T12:10:11.356Z,49.06
2017-08-25T12:12:38.915Z,49.10
2017-08-25T12:15:06.471Z,48.54
2017-08-25T12:17:33.982Z,49.38
2017-08-25T12:20:01.502Z,49.04
2017-08-25T12:22:29.008Z,48.46
2017-08-25T12:24:56.518Z,48.51
2017-08-25T12:27:23.996Z,48.60
2017-08-25T12:29:51.520Z,48.57
2017-08-25T12:32:18.992Z,49.13
2017-08-25T12:34:46.536Z,49.29
2017-08-25T12:37:14.093Z,49.51
2017-08-25T12:39:41.585Z,48.19
2017-08-25T12:42:09.044Z,47.76
2017-08-25T12:44:36.515Z,47.95
2017-08-25T12:47:03.963Z,47.63
2017-08-25T12:49:31.489Z,48.95
2017-08-25T12:51:59.037Z,48.84
2017-08-25T12:54:26.525Z,48.68
2017-08-25T12:56:53.980Z,48.94
2017-08-25T12:59:21.445Z,48.83
2017-08-25T13:01:48.952Z,48.88
2017-08-25T13:04:16.400Z,49.11
2017-08-25T13:06:43.883Z,48.50
2017-08-25T13:09:11.349Z,48.80
2017-08-25T13:11:38.825Z,49.77
2017-08-25T13:14:06.352Z,49.33
2017-08-25T13:16:33.841Z,49.12
2017-08-25T13:19:01.365Z,48.48
2017-08-25T13:21:28.939Z,48.68
2017-08-25T13:23:56.492Z,48.19
2017-08-25T13:26:24.094Z,48.55
2017-08-25T13:28:51.621Z,48.05
2017-08-25T13:31:19.086Z,49.02
2017-08-25T13:33:46.571Z,49.21
2017-08-25T13:36:14.082Z,49.33
2017-08-25T13:38:41.582Z,50.14
2017-08-25T13:41:09.094Z,49.95
2017-08-25T13:43:36.681Z,49.23
2017-08-25T13:46:04.231Z,49.91
2017-08-25T13:48:31.817Z,49.49
2017-08-25T13:50:59.285Z,49.49
2017-08-25T13:53:26.755Z,49.44
2017-08-25T13:55:54.234Z,49.37
2017-08-25T13:58:21.729Z,49.30
2017-08-25T14:00:49.213Z,49.07
2017-08-25T14:03:16.716Z,48.22
2017-08-25T14:05:44.268Z,48.71
2017-08-25T14:08:11.822Z,49.05
2017-08-25T14:10:39.402Z,48.65
2017-08-25T14:13:06.863Z,49.35
2017-08-25T14:15:34.397Z,48.84
2017-08-25T14:18:01.962Z,48.50
2017-08-25T14:20:29.451Z,48.94
2017-08-25T14:22:56.963Z,49.29
2017-08-25T14:25:24.435Z,49.57
2017-08-25T14:27:51.897Z,49.46
2017-08-25T14:30:19.439Z,48.77
2017-08-25T14:32:46.891Z,48.82
2017-08-25T14:35:14.359Z,48.89
2017-08-25T14:37:41.914Z,49.44
2017-08-25T14:40:09.356Z,49.39
2017-08-25T14:42:36.948Z,48.87
2017-08-25T14:45:04.765Z,49.85
2017-08-25T14:47:32.313Z,48.88
2017-08-25T14:49:59.994Z,49.05
2017-08-25T14:52:27.586Z,49.01
2017-08-25T14:54:55.158Z,49.27
2017-08-25T14:57:22.645Z,48.04
2017-08-25T14:59:50.165Z,48.29
2017-08-25T15:02:17.655Z,49.90
2017-08-25T15:04:45.175Z,50.59
2017-08-25T15:07:12.649Z,50.61
2017-08-25T15:09:40.132Z,49.87
2017-08-25T15:12:07.594Z,49.24
2017-08-25T15:14:35.094Z,49.50
2017-08-25T15:17:02.547Z,49.60
2017-08-25T15:19:30.134Z,50.90
2017-08-25T15:21:57.596Z,50.97
2017-08-25T15:24:25.089Z,51.38
2017-08-25T15:26:52.579Z,52.30
2017-08-25T15:29:20.057Z,51.95
2017-08-25T15:31:47.663Z,53.30
2017-08-25T15:34:15.132Z,54.58
2017-08-25T15:36:42.595Z,54.79
2017-08-25T15:39:10.177Z,55.33
2017-08-25T15:41:37.670Z,55.87
2017-08-25T15:44:05.153Z,56.73
2017-08-25T15:46:32.633Z,57.32
2017-08-25T15:49:00.101Z,56.88
2017-08-25T15:51:27.625Z,56.40
2017-08-25T15:53:55.092Z,56.91
2017-08-25T15:56:22.568Z,58.70
2017-08-25T15:58:50.127Z,58.00
2017-08-25T16:01:17.628Z,59.13
2017-08-25T16:03:45.145Z,62.84
2017-08-25T16:06:12.616Z,69.98
2017-08-25T16:08:40.095Z,73.19
2017-08-25T16:11:07.576Z,78.60
2017-08-25T16:13:35.028Z,79.89
2017-08-25T16:16:02.532Z,83.26
2017-08-25T16:18:29.993Z,80.91
2017-08-25T16:20:57.468Z,82.51
2017-08-25T16:23:24.998Z,81.19
2017-08-25T16:25:52.477Z,80.38
2017-08-25T16:28:20.015Z,82.77
2017-08-25T16:30:47.505Z,81.54
2017-08-25T16:33:15.037Z,79.44
2017-08-25T16:35:42.586Z,79.29
2017-08-25T16:38:10.157Z,81.22
2017-08-25T16:40:37.674Z,81.90
2017-08-25T16:43:05.150Z,82.21
2017-08-25T16:45:32.629Z,81.67
2017-08-25T16:48:00.109Z,81.94
2017-08-25T16:50:27.641Z,81.51
2017-08-25T16:52:55.205Z,83.72
2017-08-25T16:55:22.651Z,82.62
2017-08-25T16:57:50.137Z,84.69
2017-08-25T17:00:17.622Z,82.97
2017-08-25T17:02:45.133Z,85.29
2017-08-25T17:05:12.613Z,85.95
2017-08-25T17:07:40.135Z,84.06
2017-08-25T17:10:07.601Z,83.90
2017-08-25T17:12:35.162Z,82.82
2017-08-25T17:15:02.616Z,84.06
2017-08-25T17:17:30.100Z,84.09
2017-08-25T17:19:57.569Z,84.76
2017-08-25T17:22:25.040Z,83.71
2017-08-25T17:24:52.498Z,84.87
2017-08-25T17:27:19.977Z,84.85
2017-08-25T17:29:47.458Z,86.46
2017-08-25T17:32:15.004Z,84.90
2017-08-25T17:34:42.460Z,82.34
2017-08-25T17:37:10.022Z,84.95
2017-08-25T17:39:37.489Z,84.58
2017-08-25T17:42:05.046Z,86.31
2017-08-25T17:44:32.647Z,87.05
2017-08-25T17:47:00.129Z,86.86
2017-08-25T17:49:27.722Z,85.78
2017-08-25T17:51:55.282Z,85.68
2017-08-25T17:54:22.740Z,86.64
2017-08-25T17:56:50.319Z,86.00
2017-08-25T17:59:17.798Z,85.29
2017-08-25T18:01:45.262Z,85.27
2017-08-25T18:04:12.758Z,84.83
2017-08-25T18:06:40.325Z,85.38
2017-08-25T18:09:07.801Z,84.50
2017-08-25T18:11:35.343Z,86.30
2017-08-25T18:14:02.913Z,85.99
2017-08-25T18:16:30.453Z,85.60
2017-08-25T18:18:57.928Z,84.97
2017-08-25T18:21:25.473Z,83.41
2017-08-25T18:23:52.958Z,84.40
2017-08-25T18:26:20.471Z,84.71
2017-08-25T18:28:47.949Z,83.79
2017-08-25T18:31:15.409Z,84.95
2017-08-25T18:33:42.888Z,82.82
2017-08-25T18:36:10.407Z,84.77
2017-08-25T18:38:37.965Z,84.52
2017-08-25T18:41:05.530Z,84.87
2017-08-25T18:43:33.126Z,84.29
2017-08-25T18:46:00.591Z,80.99
2017-08-25T18:48:28.071Z,83.07
2017-08-25T18:50:55.568Z,84.52
2017-08-25T18:53:23.049Z,85.23
2017-08-25T18:55:50.569Z,85.37
2017-08-25T18:58:18.047Z,85.32
2017-08-25T19:00:45.496Z,84.14
2017-08-25T19:03:12.954Z,85.12
2017-08-25T19:05:40.427Z,85.62
2017-08-25T19:08:07.970Z,84.18
2017-08-25T19:10:35.486Z,83.80
2017-08-25T19:13:02.935Z,84.05
2017-08-25T19:15:30.425Z,84.42
2017-08-25T19:17:57.997Z,84.69
2017-08-25T19:20:25.543Z,84.61
2017-08-25T19:22:53.102Z,87.37
2017-08-25T19:25:20.936Z,85.60
2017-08-25T19:27:48.429Z,86.68
2017-08-25T19:30:15.994Z,85.88
2017-08-25T19:32:43.443Z,87.59
2017-08-25T19:35:11.009Z,86.69
2017-08-25T19:37:38.563Z,86.85
2017-08-25T19:40:06.125Z,86.27
2017-08-25T19:42:33.577Z,86.25
2017-08-25T19:45:01.066Z,86.61
2017-08-25T19:47:28.677Z,87.95
2017-08-25T19:49:56.151Z,86.89
2017-08-25T19:52:23.709Z,85.88
2017-08-25T19:54:51.268Z,86.49
2017-08-25T19:57:18.725Z,85.49
2017-08-25T19:59:46.234Z,85.14
2017-08-25T20:02:13.756Z,85.61
2017-08-25T20:04:41.293Z,85.96
2017-08-25T20:07:08.851Z,86.28
2017-08-25T20:09:36.360Z,85.33
2017-08-25T20:12:03.879Z,85.86
2017-08-25T20:14:32.424Z,86.71
2017-08-25T20:16:59.903Z,87.36
2017-08-25T20:19:27.372Z,85.94
2017-08-25T20:21:54.934Z,85.56
2017-08-25T20:24:22.417Z,86.42
2017-08-25T20:26:49.956Z,86.83
2017-08-25T20:29:17.501Z,86.46
2017-08-25T20:31:44.994Z,88.16
2017-08-25T20:34:12.483Z,87.90
2017-08-25T20:36:39.979Z,87.34
2017-08-25T20:39:07.483Z,87.59
2017-08-25T20:41:34.994Z,88.08
2017-08-25T20:44:02.465Z,87.05
2017-08-25T20:46:29.958Z,87.05
2017-08-25T20:48:57.417Z,87.05
2017-08-25T20:51:24.902Z,87.66
2017-08-25T20:53:52.374Z,89.11
2017-08-25T20:56:19.847Z,87.53
2017-08-25T20:58:47.393Z,87.45
2017-08-25T21:01:14.968Z,87.12
2017-08-25T21:03:42.420Z,87.57
2017-08-25T21:06:09.889Z,86.86
2017-08-25T21:08:37.373Z,86.63
2017-08-25T21:11:04.854Z,88.61
2017-08-25T21:13:32.330Z,89.04
2017-08-25T21:15:59.892Z,87.97
2017-08-25T21:18:27.441Z,87.25
2017-08-25T21:20:54.916Z,86.36
2017-08-25T21:23:22.387Z,86.30
2017-08-25T21:25:49.874Z,85.51
2017-08-25T21:28:17.369Z,85.84
2017-08-25T21:30:44.878Z,85.96
2017-08-25T21:33:12.397Z,85.32
2017-08-25T21:35:39.949Z,85.31
2017-08-25T21:38:07.396Z,86.53
2017-08-25T21:40:34.859Z,86.64
2017-08-25T21:43:02.337Z,86.50
2017-08-25T21:45:29.871Z,87.32
2017-08-25T21:47:57.350Z,87.97
2017-08-25T21:50:24.815Z,87.38
2017-08-25T21:52:52.306Z,87.51
2017-08-25T21:55:19.813Z,86.28
2017-08-25T21:57:47.293Z,86.68
2017-08-25T22:00:14.752Z,88.99
2017-08-25T22:02:42.282Z,88.52
2017-08-25T22:05:09.766Z,87.47
2017-08-25T22:07:37.235Z,85.32
2017-08-25T22:10:04.700Z,85.87
2017-08-25T22:12:32.208Z,87.15
2017-08-25T22:14:59.765Z,86.73
2017-08-25T22:17:27.330Z,86.55
2017-08-25T22:19:54.875Z,87.48
2017-08-25T22:22:22.348Z,87.91
2017-08-25T22:24:49.890Z,87.46
2017-08-25T22:27:17.381Z,87.41
2017-08-25T22:29:44.837Z,87.51
2017-08-25T22:32:12.318Z,87.08
2017-08-25T22:34:39.833Z,87.54
2017-08-25T22:37:07.392Z,87.14
2017-08-25T22:39:34.845Z,87.90
2017-08-25T22:42:02.333Z,88.00
2017-08-25T22:44:29.783Z,88.48
2017-08-25T22:46:57.268Z,89.87
2017-08-25T22:49:24.782Z,90.17
2017-08-25T22:51:52.535Z,89.28
2017-08-25T22:54:20.094Z,88.60
2017-08-25T22:56:47.544Z,88.38
2017-08-25T22:59:15.039Z,88.28
2017-08-25T23:01:42.517Z,87.90
2017-08-25T23:04:10.047Z,88.07
2017-08-25T23:06:38.506Z,88.15
2017-08-25T23:09:06.000Z,89.41
2017-08-25T23:11:33.485Z,89.94
2017-08-25T23:14:00.977Z,89.02
2017-08-25T23:16:28.423Z,89.88
2017-08-25T23:18:55.891Z,89.51
2017-08-25T23:21:23.431Z,88.59
2017-08-25T23:23:50.973Z,89.92
2017-08-25T23:26:18.456Z,89.01
2017-08-25T23:28:45.981Z,89.05
2017-08-25T23:31:13.465Z,88.61
2017-08-25T23:33:41.139Z,88.07
2017-08-25T23:36:08.684Z,87.48
2017-08-25T23:38:36.173Z,87.92
2017-08-25T23:41:03.659Z,87.88
2017-08-25T23:43:31.214Z,87.50
2017-08-25T23:45:58.718Z,88.13
2017-08-25T23:48:26.283Z,88.21
2017-08-25T23:50:53.756Z,88.32
2017-08-25T23:53:21.291Z,88.19
2017-08-25T23:55:48.775Z,87.83
2017-08-25T23:58:16.316Z,89.06
